Terminal Aerodrome Forecast
Issued by NWS

Home | Current Version | Previous Version | Text Only | Print | Product List | Glossary On
Versions: 1 2 3 4 5 6 7 8 9 10 11 12 13 14 15 16 17 18 19 20 21 22 23 24 25
000
FTUS46 KOTX 270526
TAFPUW
TAF
KPUW 270526Z 2706/2806 00000KT P6SM FEW200
     FM271200 09005KT P6SM FEW100 FEW150
      TEMPO 2714/2717 10010KT
     FM271800 12006KT P6SM FEW090 SCT150
     FM280000 06003KT P6SM SKC=

USA.gov is the U.S. government's official web portal to all federal, state and local government web resources and services.